Duncans Mills, CA (95430)

8:52 PM PDT on July 29, 2016 (GMT -0700)
Black Mountain Communications NOC | | Change Station

Elev 1093 ft 38.53 °N, 123.13 °W | Updated 4 minutes ago

Partly Cloudy
Partly Cloudy
77.2 °F
Feels Like 78 °F
N
1.0
Wind Variable Wind from SSW
Gusts 2.0 mph

Today
High -- | Low -- °F
--% Chance of Precip.
Yesterday
High -- | Low -- °F
Precip. -- in
Pressure 29.75 in
Visibility 10.0 miles
Clouds Few 1200 ft
Heat Index 78 °F
Dew Point 46 °F
Humidity 33%
Rainfall 0.00 in
Snow Depth Not available.
6:12 AM 8:25 PM
Waning Crescent, 16% visible
METAR KSTS 300253Z 15007KT 10SM FEW012 18/12 A2976 RMK AO2 SLP072 T01830117 53001
Pressure 29.75 in
Visibility 10.0 miles
Clouds Few 1200 ft
Heat Index 78 °F
Dew Point 46 °F
Humidity 33%
Rainfall 0.00 in
Snow Depth Not available.
6:12 AM 8:25 PM
Waning Crescent, 16% visible
METAR KSTS 300253Z 15007KT 10SM FEW012 18/12 A2976 RMK AO2 SLP072 T01830117 53001

10-Day Weather Forecast

Almanac

Astronomy

Jul. 29, 2016 Rise Set
Actual Time
Civil Twilight
Nautical Twilight
Astronomical Twilight
Moon
Length of Visible Light
Length of Day
Tomorrow will be .
, % of the Moon is Illuminated

Today's Extremes

State Highs State Lows

Community

WunderPhotos

Upload Photos

1,928,500 photos uploaded!

WunderBlog® & News

Nearby

Air Quality

  Air Quality AQ Index Pollutant
Not available.

Snow Depth

Station Depth Elevation

Earthquake Activity

City Distance Mag. Time & Date
Minimum magnitude displayed is 2.5.

Coastal Water Temperatures

Place Temperature

Stations

Nearby Weather Stations

Station Location Temp. Windchill Dew Point Humidity Wind Precip. Elev Updated Type
                   

Watches & Warnings

There are currently no watches in effect.